Terminal Aerodrome Forecast
Issued by NWS

Home | Current Version | Previous Version | Graphics & Text | Print | Product List | Glossary On
Versions: 1 2 3 4 5 6 7 8 9 10 11 12 13 14 15 16 17 18 19 20 21 22 23 24 25
000
FTUS43 KBIS 200520
TAFDIK
TAF
KDIK 200520Z 2006/2106 35005KT 3SM -SN OVC035
     FM200900 33004KT P6SM VCSH OVC025
     FM201200 29007KT P6SM OVC060
     FM202000 27012KT P6SM BKN110
     FM202300 27010KT P6SM SCT200=

USA.gov is the U.S. government's official web portal to all federal, state and local government web resources and services.